Stratford, CT (06497)

11:30 PM EDT on July 03, 2015 (GMT -0400)
Nichols Elementary School | | Change Station
CLOSE
Current Station
Personal Weather Station
Location: Stratford, CT
Elevation: 108 ft
Nearby Weather Stations

Elev 108 ft 41.20 °N, 73.14 °W | Updated 3 minutes ago

Clear
Clear
67.0 °F
Feels Like 67.0 °F
N
0.0
Wind Variable Wind from SW
Gusts 0.0 mph

Today
High -- | Low -- °F
--% Chance of Precip.
Yesterday
High -- | Low -- °F
Precip. -- in
5:24 AM 8:28 PM
Waning Gibbous, 94% visible
Pressure 29.99 in
Visibility 10.0 miles
Clouds Clear
Dew Point 61 °F
Humidity 80%
Rainfall 0.00 in
Snow Depth Not available.
UV 0.0 out of 12
Pollen 4.10 out of 12
Air Quality Not available.
Flu Activity Not available.
METAR KBDR 040252Z AUTO 19003KT 10SM CLR 21/16 A2999 RMK AO2 SLP155 T02110156 53008

More Conditions Fewer Conditions

Pressure 29.99 in
Visibility 10.0 miles
Clouds Clear
Dew Point 61 °F
Humidity 80%
Rainfall 0.00 in
Snow Depth Not available.
UV 0.0 out of 12
Pollen 4.10 out of 12
Air Quality Not available.
Flu Activity Not available.
METAR KBDR 040252Z AUTO 19003KT 10SM CLR 21/16 A2999 RMK AO2 SLP155 T02110156 53008

More Conditions Fewer Conditions

10-Day Weather Forecast

×

Almanac

Astronomy

Jul. 03, 2015 Rise Set
Actual Time
Civil Twilight
Nautical Twilight
Astronomical Twilight
Moon
Length of Visible Light
Length of Day
Tomorrow will be .
, % of the Moon is Illuminated

Today's Extremes

State Highs State Lows

Community

WunderPhotos

Upload Photos

1,834,911 photos uploaded!

WunderBlogs® & News

Nearby

Air Quality

  Air Quality AQ Index Pollutant
Not available.

Snow Depth

Station Depth Elevation

Earthquake Activity

City Distance Mag. Time & Date
Minimum magnitude displayed is 2.5.

Coastal Water Temperatures

Place Temperature

Stations

Nearby Weather Stations

Station Location Temp. Windchill Dew Point Humidity Wind Precip. Elev Updated Type